createdAt,value
2017-03-13T00:00:21.975Z,72.49
2017-03-13T00:01:35.922Z,72.87
2017-03-13T00:02:49.673Z,72.87
2017-03-13T00:04:03.410Z,72.77
2017-03-13T00:05:17.467Z,72.49
2017-03-13T00:06:30.737Z,73.07
2017-03-13T00:07:44.538Z,73.65
2017-03-13T00:08:58.288Z,73.16
2017-03-13T00:10:11.550Z,74.04
2017-03-13T00:11:25.139Z,73.84
2017-03-13T00:12:38.868Z,74.52
2017-03-13T00:13:52.019Z,74.91
2017-03-13T00:15:05.781Z,74.81
2017-03-13T00:16:19.745Z,75.49
2017-03-13T00:17:33.918Z,75.55
2017-03-13T00:18:47.608Z,75.74
2017-03-13T00:20:01.341Z,75.74
2017-03-13T00:21:15.521Z,75.65
2017-03-13T00:22:29.436Z,75.94
2017-03-13T00:23:43.477Z,76.42
2017-03-13T00:24:57.849Z,76.42
2017-03-13T00:26:10.311Z,76.52
2017-03-13T00:27:24.144Z,76.72
2017-03-13T00:28:37.965Z,76.81
2017-03-13T00:29:52.314Z,77.29
2017-03-13T00:31:06.724Z,77.59
2017-03-13T00:32:21.126Z,77.59
2017-03-13T00:33:35.467Z,78.03
2017-03-13T00:34:49.860Z,78.03
2017-03-13T00:36:04.255Z,77.84
2017-03-13T00:37:18.031Z,78.13
2017-03-13T00:38:32.376Z,78.42
2017-03-13T00:39:46.692Z,78.33
2017-03-13T00:41:01.088Z,78.91
2017-03-13T00:42:14.824Z,78.33
2017-03-13T00:43:27.965Z,78.61
2017-03-13T00:44:42.378Z,78.38
2017-03-13T00:45:56.789Z,78.61
2017-03-13T00:47:11.165Z,78.33
2017-03-13T00:48:25.552Z,78.33
2017-03-13T00:49:39.954Z,78.91
2017-03-13T00:50:54.362Z,79.1
2017-03-13T00:52:08.073Z,78.91
2017-03-13T00:53:22.522Z,79
2017-03-13T00:54:36.908Z,78.38
2017-03-13T00:55:51.301Z,78.48
2017-03-13T00:57:05.061Z,78.58
2017-03-13T00:58:18.798Z,78.61
2017-03-13T00:59:32.559Z,78
2017-03-13T01:00:46.999Z,78.29
2017-03-13T01:02:01.465Z,78.48
2017-03-13T01:03:15.252Z,78.77
2017-03-13T01:04:29.838Z,78.13
2017-03-13T01:05:44.228Z,78.52
2017-03-13T01:06:58.648Z,77.84
2017-03-13T01:08:13.013Z,77.75
2017-03-13T01:09:27.416Z,77.45
2017-03-13T01:10:41.806Z,77.36
2017-03-13T01:11:56.208Z,77.65
2017-03-13T01:13:10.591Z,76.97
2017-03-13T01:14:24.964Z,77.26
2017-03-13T01:15:39.350Z,77.45
2017-03-13T01:16:53.741Z,77.84
2017-03-13T01:18:08.083Z,77.55
2017-03-13T01:19:22.510Z,77.55
2017-03-13T01:20:37.092Z,77.55
2017-03-13T01:21:50.868Z,77.94
2017-03-13T01:23:05.267Z,77.84
2017-03-13T01:24:19.630Z,78.03
2017-03-13T01:25:34.006Z,78.03
2017-03-13T01:26:48.403Z,78.81
2017-03-13T01:28:02.810Z,78.81
2017-03-13T01:29:16.593Z,78.87
2017-03-13T01:30:30.337Z,78.33
2017-03-13T01:31:44.668Z,78.87
2017-03-13T01:32:59.069Z,79.1
2017-03-13T01:34:12.837Z,78.58
2017-03-13T01:35:27.212Z,79.06
2017-03-13T01:36:41.616Z,78.58
2017-03-13T01:37:55.952Z,79
2017-03-13T01:39:10.538Z,79
2017-03-13T01:40:24.948Z,78.61
2017-03-13T01:41:39.325Z,79.1
2017-03-13T01:42:53.703Z,79.1
2017-03-13T01:44:07.508Z,79.1
2017-03-13T01:45:20.682Z,79.3
2017-03-13T01:46:35.062Z,79.39
2017-03-13T01:47:48.186Z,79.3
2017-03-13T01:49:02.606Z,79
2017-03-13T01:50:17.028Z,78.91
2017-03-13T01:51:30.763Z,78.91
2017-03-13T01:52:45.128Z,79
2017-03-13T01:53:59.514Z,79.3
2017-03-13T01:55:13.901Z,78.91
2017-03-13T01:56:28.313Z,79.49
2017-03-13T01:57:42.738Z,79.49
2017-03-13T01:58:57.201Z,79.3
2017-03-13T02:00:11.571Z,77.65
2017-03-13T02:01:25.975Z,77.94
2017-03-13T02:02:40.348Z,77.84
2017-03-13T02:03:54.119Z,76.45
2017-03-13T02:05:08.533Z,77.03
2017-03-13T02:06:22.329Z,77.7
2017-03-13T02:07:36.737Z,77.8
2017-03-13T02:08:50.884Z,80.13
2017-03-13T02:10:05.379Z,83.28
2017-03-13T02:11:19.102Z,85.61
2017-03-13T02:12:33.531Z,88.09
2017-03-13T02:13:47.927Z,90.07
2017-03-13T02:15:02.343Z,91.42
2017-03-13T02:16:16.770Z,92.44
2017-03-13T02:17:30.693Z,93.7
2017-03-13T02:18:44.508Z,93.95
2017-03-13T02:19:58.893Z,94.24
2017-03-13T02:21:13.294Z,95.2
2017-03-13T02:22:27.077Z,96.07
2017-03-13T02:23:40.844Z,96.61
2017-03-13T02:24:55.305Z,96.99
2017-03-13T02:26:09.697Z,97.19
2017-03-13T02:27:24.117Z,97.77
2017-03-13T02:28:38.493Z,99.41
2017-03-13T02:29:52.844Z,99.99
2017-03-13T02:31:06.621Z,99.99
2017-03-13T02:32:21.030Z,99.99
2017-03-13T02:33:35.491Z,99.99
2017-03-13T02:34:50.074Z,99.99
2017-03-13T02:36:03.178Z,99.99
2017-03-13T02:37:17.606Z,99.99
2017-03-13T02:38:31.988Z,99.99
2017-03-13T02:39:46.384Z,99.99
2017-03-13T02:41:00.759Z,99.99
2017-03-13T02:42:15.153Z,99.99
2017-03-13T02:43:28.919Z,99.99
2017-03-13T02:44:43.302Z,99.99
2017-03-13T02:45:57.683Z,99.99
2017-03-13T02:47:11.430Z,99.99
2017-03-13T02:48:25.828Z,99.99
2017-03-13T02:49:40.259Z,99.99
2017-03-13T02:50:54.671Z,99.99
2017-03-13T02:52:09.087Z,99.99
2017-03-13T02:53:23.548Z,99.99
2017-03-13T02:54:37.919Z,99.99
2017-03-13T02:55:52.317Z,99.99
2017-03-13T02:57:06.694Z,99.99
2017-03-13T02:58:21.093Z,99.99
2017-03-13T02:59:35.528Z,99.99
2017-03-13T03:00:49.907Z,99.99
2017-03-13T03:02:04.345Z,99.99
2017-03-13T03:03:18.776Z,99.99
2017-03-13T03:04:32.511Z,99.99
2017-03-13T03:05:46.246Z,99.99
2017-03-13T03:07:00.646Z,99.99
2017-03-13T03:08:15.094Z,99.99
2017-03-13T03:09:29.474Z,99.99
2017-03-13T03:10:43.259Z,99.99
2017-03-13T03:11:57.672Z,99.99
2017-03-13T03:13:11.433Z,99.99
2017-03-13T03:14:25.830Z,99.99
2017-03-13T03:15:39.637Z,99.99
2017-03-13T03:16:53.403Z,99.99
2017-03-13T03:18:07.164Z,99.99
2017-03-13T03:19:21.577Z,99.99
2017-03-13T03:20:36.444Z,99.99
2017-03-13T03:21:50.826Z,99.99
2017-03-13T03:23:05.232Z,99.99
2017-03-13T03:24:19.626Z,99.99
2017-03-13T03:25:34.055Z,99.99
2017-03-13T03:26:48.470Z,99.99
2017-03-13T03:28:02.878Z,99.99
2017-03-13T03:29:17.319Z,99.99
2017-03-13T03:30:31.775Z,99.99
2017-03-13T03:31:46.190Z,99.99
2017-03-13T03:33:00.601Z,99.99
2017-03-13T03:34:15.014Z,99.99
2017-03-13T03:35:29.429Z,99.99
2017-03-13T03:36:43.914Z,99.99
2017-03-13T03:37:58.346Z,99.99
2017-03-13T03:39:12.739Z,99.99
2017-03-13T03:40:27.131Z,99.99
2017-03-13T03:41:40.218Z,99.99
2017-03-13T03:42:54.659Z,99.99
2017-03-13T03:44:09.063Z,99.99
2017-03-13T03:45:23.481Z,99.99
2017-03-13T03:46:37.298Z,99.99
2017-03-13T03:47:51.951Z,99.99
2017-03-13T03:49:06.354Z,99.99
2017-03-13T03:50:20.102Z,99.99
2017-03-13T03:51:34.495Z,99.99
2017-03-13T03:52:48.269Z,99.99
2017-03-13T03:54:02.684Z,99.99
2017-03-13T03:55:17.137Z,99.99
2017-03-13T03:56:30.893Z,99.99
2017-03-13T03:57:45.314Z,99.99
2017-03-13T03:58:59.738Z,99.99
2017-03-13T04:00:14.151Z,99.99
2017-03-13T04:01:28.597Z,99.99
2017-03-13T04:02:42.326Z,99.99
2017-03-13T04:03:56.091Z,99.99
2017-03-13T04:05:10.473Z,99.99
2017-03-13T04:06:24.902Z,99.99
2017-03-13T04:07:39.307Z,99.99
2017-03-13T04:08:53.696Z,99.99
2017-03-13T04:10:08.099Z,99.99
2017-03-13T04:11:22.529Z,99.99
2017-03-13T04:12:35.630Z,99.99
2017-03-13T04:13:50.045Z,99.99
2017-03-13T04:15:04.413Z,99.99
2017-03-13T04:16:18.903Z,99.99
2017-03-13T04:17:33.351Z,99.99
2017-03-13T04:18:47.718Z,99.99
2017-03-13T04:20:02.123Z,99.99
2017-03-13T04:21:15.892Z,99.99
2017-03-13T04:22:30.322Z,99.99
2017-03-13T04:23:44.697Z,99.99
2017-03-13T04:24:59.087Z,99.99
2017-03-13T04:26:13.455Z,99.99
2017-03-13T04:27:27.875Z,99.99
2017-03-13T04:28:42.300Z,99.99
2017-03-13T04:29:55.396Z,99.99
2017-03-13T04:31:09.796Z,99.99
2017-03-13T04:32:24.176Z,99.99
2017-03-13T04:33:38.584Z,99.99
2017-03-13T04:34:52.960Z,99.99
2017-03-13T04:36:07.360Z,99.99
2017-03-13T04:37:21.747Z,99.99
2017-03-13T04:38:36.147Z,99.99
2017-03-13T04:39:50.597Z,99.99
2017-03-13T04:41:05.520Z,99.99
2017-03-13T04:42:19.950Z,99.99
2017-03-13T04:43:33.087Z,99.99
2017-03-13T04:44:47.465Z,99.99
2017-03-13T04:46:01.851Z,99.99
2017-03-13T04:47:15.599Z,99.99
2017-03-13T04:48:30.033Z,99.99
2017-03-13T04:49:44.539Z,99.99
2017-03-13T04:50:58.300Z,99.99
2017-03-13T04:52:12.103Z,99.99
2017-03-13T04:53:26.493Z,99.99
2017-03-13T04:54:40.273Z,99.99
2017-03-13T04:55:54.661Z,99.99
2017-03-13T04:57:09.036Z,99.99
2017-03-13T04:58:22.828Z,99.99
2017-03-13T04:59:37.195Z,99.99
2017-03-13T05:00:51.561Z,99.99
2017-03-13T05:02:05.914Z,99.99
2017-03-13T05:03:19.618Z,99.99
2017-03-13T05:04:34.026Z,99.99
2017-03-13T05:05:48.402Z,99.99
2017-03-13T05:07:02.826Z,99.99
2017-03-13T05:08:17.234Z,99.99
2017-03-13T05:09:31.008Z,99.99
2017-03-13T05:10:44.765Z,99.99
2017-03-13T05:11:59.222Z,99.99
2017-03-13T05:13:13.643Z,99.99
2017-03-13T05:14:28.068Z,99.99
2017-03-13T05:15:42.350Z,99.99
2017-03-13T05:16:56.070Z,99.99
2017-03-13T05:18:10.503Z,99.99
2017-03-13T05:19:24.910Z,99.99
2017-03-13T05:20:39.286Z,99.99
2017-03-13T05:21:53.712Z,99.99
2017-03-13T05:23:08.066Z,99.99
2017-03-13T05:24:22.475Z,99.99
2017-03-13T05:25:36.833Z,99.99
2017-03-13T05:26:51.332Z,99.99
2017-03-13T05:28:05.044Z,99.99
2017-03-13T05:29:19.444Z,99.99
2017-03-13T05:30:33.710Z,99.99
2017-03-13T05:31:47.999Z,99.99
2017-03-13T05:33:02.381Z,99.99
2017-03-13T05:34:16.757Z,99.99
2017-03-13T05:35:29.876Z,99.99
2017-03-13T05:36:43.518Z,99.99
2017-03-13T05:37:56.274Z,99.99
2017-03-13T05:39:10.380Z,99.99
2017-03-13T05:40:23.931Z,99.99
2017-03-13T05:41:38.020Z,99.99
2017-03-13T05:42:51.714Z,99.99
2017-03-13T05:44:05.522Z,99.99
2017-03-13T05:45:19.705Z,99.99
2017-03-13T05:46:33.544Z,99.99
2017-03-13T05:47:47.277Z,99.99
2017-03-13T05:49:00.954Z,99.99
2017-03-13T05:50:14.180Z,99.99
2017-03-13T05:51:28.266Z,99.99
2017-03-13T05:52:41.919Z,99.99
2017-03-13T05:53:55.608Z,99.99
2017-03-13T05:55:09.358Z,99.99
2017-03-13T05:56:23.131Z,99.99
2017-03-13T05:57:36.938Z,99.99
2017-03-13T05:58:50.644Z,99.99
2017-03-13T06:00:04.344Z,99.99
2017-03-13T06:01:17.521Z,99.99
2017-03-13T06:02:31.258Z,99.99
2017-03-13T06:03:44.964Z,99.99
2017-03-13T06:04:58.654Z,99.99
2017-03-13T06:06:11.791Z,99.99
2017-03-13T06:07:25.051Z,99.99
2017-03-13T06:08:38.143Z,99.99
2017-03-13T06:09:51.859Z,99.99
2017-03-13T06:11:05.608Z,99.99
2017-03-13T06:12:18.714Z,99.99
2017-03-13T06:13:32.407Z,99.99
2017-03-13T06:14:45.504Z,99.99
2017-03-13T06:15:59.202Z,99.99
2017-03-13T06:17:12.894Z,99.99
2017-03-13T06:18:26.619Z,99.99
2017-03-13T06:19:39.736Z,99.99
2017-03-13T06:20:53.448Z,99.99
2017-03-13T06:22:07.146Z,99.99
2017-03-13T06:23:20.832Z,99.99
2017-03-13T06:24:34.555Z,99.99
2017-03-13T06:25:48.277Z,99.99
2017-03-13T06:27:01.967Z,99.99
2017-03-13T06:28:15.095Z,99.99
2017-03-13T06:29:28.856Z,99.99
2017-03-13T06:30:42.538Z,99.99
2017-03-13T06:31:55.061Z,99.99
2017-03-13T06:33:08.785Z,99.99
2017-03-13T06:34:22.593Z,99.99
2017-03-13T06:35:36.291Z,99.99
2017-03-13T06:36:49.965Z,99.99
2017-03-13T06:38:03.682Z,99.99
2017-03-13T06:39:16.810Z,99.99
2017-03-13T06:40:30.527Z,99.99
2017-03-13T06:41:44.232Z,99.99
2017-03-13T06:42:57.961Z,99.99
2017-03-13T06:44:11.637Z,99.99
2017-03-13T06:45:25.339Z,99.99
2017-03-13T06:46:39.057Z,99.99
2017-03-13T06:47:52.749Z,99.99
2017-03-13T06:49:05.871Z,99.99
2017-03-13T06:50:19.587Z,99.99
2017-03-13T06:51:33.354Z,99.99
2017-03-13T06:52:47.059Z,99.99
2017-03-13T06:54:00.771Z,99.99
2017-03-13T06:55:14.441Z,99.99
2017-03-13T06:56:27.534Z,99.99
2017-03-13T06:57:41.203Z,99.99
2017-03-13T06:58:54.324Z,99.99
2017-03-13T07:00:08.079Z,99.99
2017-03-13T07:01:21.227Z,99.99
2017-03-13T07:02:34.369Z,99.99
2017-03-13T07:03:48.080Z,99.99
2017-03-13T07:05:01.768Z,99.99
2017-03-13T07:06:15.445Z,99.99
2017-03-13T07:07:28.551Z,99.99
2017-03-13T07:08:42.241Z,99.99
2017-03-13T07:09:55.932Z,99.99
2017-03-13T07:11:09.634Z,99.99
2017-03-13T07:12:22.745Z,99.99
2017-03-13T07:13:36.434Z,99.99
2017-03-13T07:14:50.138Z,99.99
2017-03-13T07:16:03.827Z,99.99
2017-03-13T07:17:17.541Z,99.99
2017-03-13T07:18:31.277Z,99.99
2017-03-13T07:19:44.987Z,99.99
2017-03-13T07:20:58.703Z,99.99
2017-03-13T07:22:12.408Z,99.99
2017-03-13T07:23:26.104Z,99.99
2017-03-13T07:24:39.802Z,99.99
2017-03-13T07:25:52.943Z,99.99
2017-03-13T07:27:06.023Z,99.99
2017-03-13T07:28:19.116Z,99.99
2017-03-13T07:29:31.616Z,99.99
2017-03-13T07:30:44.758Z,99.99
2017-03-13T07:31:58.464Z,99.99
2017-03-13T07:33:12.176Z,99.99
2017-03-13T07:34:25.863Z,99.99
2017-03-13T07:35:39.572Z,99.99
2017-03-13T07:36:53.255Z,99.99
2017-03-13T07:38:07.007Z,99.99
2017-03-13T07:39:20.734Z,99.99
2017-03-13T07:40:34.445Z,99.99
2017-03-13T07:41:48.147Z,99.99
2017-03-13T07:43:01.835Z,99.99
2017-03-13T07:44:15.571Z,99.99
2017-03-13T07:45:28.673Z,99.99
2017-03-13T07:46:42.379Z,99.99
2017-03-13T07:47:55.456Z,99.99
2017-03-13T07:49:09.155Z,99.99
2017-03-13T07:50:22.887Z,99.99
2017-03-13T07:51:35.977Z,99.99
2017-03-13T07:52:49.688Z,99.99
2017-03-13T07:54:03.408Z,99.99
2017-03-13T07:55:17.107Z,99.99
2017-03-13T07:56:30.208Z,99.99
2017-03-13T07:57:43.332Z,99.99
2017-03-13T07:58:57.037Z,99.99
2017-03-13T08:00:10.162Z,99.99
2017-03-13T08:01:23.885Z,99.99
2017-03-13T08:02:37.594Z,99.99
2017-03-13T08:03:51.291Z,99.99
2017-03-13T08:05:04.963Z,99.99
2017-03-13T08:06:18.642Z,99.99
2017-03-13T08:07:31.173Z,99.99
2017-03-13T08:08:44.866Z,99.99
2017-03-13T08:09:58.580Z,99.99
2017-03-13T08:11:12.304Z,99.99
2017-03-13T08:12:25.423Z,99.99
2017-03-13T08:13:38.530Z,99.99
2017-03-13T08:14:52.241Z,99.99
2017-03-13T08:16:05.939Z,99.99
2017-03-13T08:17:19.042Z,99.99
2017-03-13T08:18:32.729Z,99.99
2017-03-13T08:19:46.437Z,99.99
2017-03-13T08:21:00.117Z,99.99
2017-03-13T08:22:13.866Z,99.99
2017-03-13T08:23:27.578Z,99.99
2017-03-13T08:24:41.322Z,99.99
2017-03-13T08:25:54.420Z,99.99
2017-03-13T08:27:07.545Z,99.99
2017-03-13T08:28:21.303Z,99.99
2017-03-13T08:29:35.027Z,99.99
2017-03-13T08:30:48.697Z,99.99
2017-03-13T08:32:02.380Z,99.99
2017-03-13T08:33:16.094Z,99.99
2017-03-13T08:34:28.034Z,99.99
2017-03-13T08:35:41.765Z,99.99
2017-03-13T08:36:55.496Z,99.99
2017-03-13T08:38:08.596Z,99.99
2017-03-13T08:39:22.308Z,99.99
2017-03-13T08:40:35.425Z,99.99
2017-03-13T08:41:49.149Z,99.99
2017-03-13T08:43:02.276Z,99.99
2017-03-13T08:44:15.391Z,99.99
2017-03-13T08:45:28.513Z,99.99
2017-03-13T08:46:41.690Z,99.99
2017-03-13T08:47:54.812Z,99.99
2017-03-13T08:49:08.516Z,99.99
2017-03-13T08:50:22.222Z,99.99
2017-03-13T08:51:35.906Z,99.99
2017-03-13T08:52:49.600Z,99.99
2017-03-13T08:54:03.354Z,99.99
2017-03-13T08:55:17.052Z,99.99
2017-03-13T08:56:30.740Z,99.99
2017-03-13T08:57:44.446Z,99.99
2017-03-13T08:58:58.156Z,99.99
2017-03-13T09:00:11.910Z,99.99
2017-03-13T09:01:25.645Z,99.99
2017-03-13T09:02:38.772Z,99.99
2017-03-13T09:03:52.496Z,99.99
2017-03-13T09:05:05.630Z,99.99
2017-03-13T09:06:19.316Z,99.99
2017-03-13T09:07:32.401Z,99.99
2017-03-13T09:08:46.124Z,99.99
2017-03-13T09:09:59.189Z,99.99
2017-03-13T09:11:12.879Z,99.99
2017-03-13T09:12:26.576Z,99.99
2017-03-13T09:13:40.306Z,99.99
2017-03-13T09:14:53.996Z,99.99
2017-03-13T09:16:07.687Z,99.99
2017-03-13T09:17:21.404Z,99.99
2017-03-13T09:18:35.104Z,99.99
2017-03-13T09:19:48.249Z,99.99
2017-03-13T09:21:01.943Z,99.99
2017-03-13T09:22:15.640Z,99.99
2017-03-13T09:23:28.769Z,99.99
2017-03-13T09:24:42.478Z,99.99
2017-03-13T09:25:55.588Z,99.99
2017-03-13T09:27:09.327Z,99.99
2017-03-13T09:28:23.026Z,99.99
2017-03-13T09:29:36.774Z,99.99
2017-03-13T09:30:49.280Z,99.99
2017-03-13T09:32:01.181Z,99.99
2017-03-13T09:33:14.884Z,99.99
2017-03-13T09:34:28.028Z,99.99
2017-03-13T09:35:41.766Z,99.99
2017-03-13T09:36:55.460Z,99.99
2017-03-13T09:38:09.171Z,99.99
2017-03-13T09:39:22.882Z,99.99
2017-03-13T09:40:36.004Z,99.99
2017-03-13T09:41:49.679Z,99.99
2017-03-13T09:43:03.388Z,99.99
2017-03-13T09:44:17.117Z,99.99
2017-03-13T09:45:30.811Z,99.99
2017-03-13T09:46:44.499Z,99.99
2017-03-13T09:47:58.210Z,99.99
2017-03-13T09:49:11.335Z,99.99
2017-03-13T09:50:25.035Z,99.99
2017-03-13T09:51:38.147Z,99.99
2017-03-13T09:52:51.885Z,99.99
2017-03-13T09:54:04.989Z,99.99
2017-03-13T09:55:18.664Z,99.99
2017-03-13T09:56:32.428Z,99.99
2017-03-13T09:57:44.943Z,99.99
2017-03-13T09:58:58.623Z,99.99
2017-03-13T10:00:10.527Z,99.99
2017-03-13T10:01:24.259Z,99.99
2017-03-13T10:02:37.965Z,99.99
2017-03-13T10:03:51.678Z,99.99
2017-03-13T10:05:05.351Z,99.99
2017-03-13T10:06:19.087Z,99.99
2017-03-13T10:07:32.833Z,99.99
2017-03-13T10:08:46.524Z,99.99
2017-03-13T10:09:59.630Z,99.99
2017-03-13T10:11:13.344Z,99.99
2017-03-13T10:12:26.481Z,99.99
2017-03-13T10:13:39.594Z,99.99
2017-03-13T10:14:53.332Z,99.99
2017-03-13T10:16:07.001Z,99.99
2017-03-13T10:17:20.119Z,99.99
2017-03-13T10:18:33.253Z,99.99
2017-03-13T10:19:46.967Z,99.99
2017-03-13T10:21:00.661Z,99.99
2017-03-13T10:22:14.393Z,99.99
2017-03-13T10:23:27.505Z,99.99
2017-03-13T10:24:40.592Z,99.99
2017-03-13T10:25:53.694Z,99.99
2017-03-13T10:27:07.443Z,99.99
2017-03-13T10:28:20.532Z,99.99
2017-03-13T10:29:33.655Z,99.99
2017-03-13T10:30:47.363Z,99.99
2017-03-13T10:32:00.457Z,99.99
2017-03-13T10:33:14.175Z,99.99
2017-03-13T10:34:27.899Z,99.99
2017-03-13T10:35:40.988Z,99.99
2017-03-13T10:36:54.095Z,99.99
2017-03-13T10:38:07.809Z,99.99
2017-03-13T10:39:21.488Z,99.99
2017-03-13T10:40:35.203Z,99.99
2017-03-13T10:41:48.315Z,99.99
2017-03-13T10:43:01.436Z,99.99
2017-03-13T10:44:15.180Z,99.99
2017-03-13T10:45:28.299Z,99.99
2017-03-13T10:46:42.010Z,99.99
2017-03-13T10:47:55.757Z,99.99
2017-03-13T10:49:09.487Z,99.99
2017-03-13T10:50:22.626Z,99.99
2017-03-13T10:51:35.244Z,99.99
2017-03-13T10:52:49.033Z,99.99
2017-03-13T10:54:02.742Z,99.99
2017-03-13T10:55:16.480Z,99.99
2017-03-13T10:56:29.619Z,99.99
2017-03-13T10:57:43.311Z,99.99
2017-03-13T10:58:56.451Z,99.99
2017-03-13T11:00:09.557Z,99.99
2017-03-13T11:01:23.349Z,99.99
2017-03-13T11:02:37.121Z,99.99
2017-03-13T11:03:50.838Z,99.99
2017-03-13T11:05:04.553Z,99.99
2017-03-13T11:06:18.272Z,99.99
2017-03-13T11:07:32.001Z,99.99
2017-03-13T11:08:45.752Z,99.99
2017-03-13T11:09:59.542Z,99.99
2017-03-13T11:11:13.348Z,99.99
2017-03-13T11:12:27.088Z,99.99
2017-03-13T11:13:40.203Z,99.99
2017-03-13T11:14:53.309Z,99.99
2017-03-13T11:16:06.397Z,99.99
2017-03-13T11:17:20.109Z,99.99
2017-03-13T11:18:33.823Z,99.99
2017-03-13T11:19:47.531Z,99.99
2017-03-13T11:21:00.906Z,99.99
2017-03-13T11:22:14.746Z,99.99
2017-03-13T11:23:28.461Z,99.99
2017-03-13T11:24:41.601Z,99.99
2017-03-13T11:25:55.311Z,99.99
2017-03-13T11:27:08.458Z,99.99
2017-03-13T11:28:22.152Z,99.99
2017-03-13T11:29:35.848Z,99.99
2017-03-13T11:30:49.584Z,99.99
2017-03-13T11:32:02.748Z,99.99
2017-03-13T11:33:15.873Z,99.99
2017-03-13T11:34:29.560Z,99.99
2017-03-13T11:35:42.669Z,99.99
2017-03-13T11:36:56.392Z,99.99
2017-03-13T11:38:10.079Z,99.99
2017-03-13T11:39:23.187Z,99.99
2017-03-13T11:40:36.912Z,99.99
2017-03-13T11:41:50.638Z,99.99
2017-03-13T11:43:04.349Z,99.99
2017-03-13T11:44:18.052Z,99.99
2017-03-13T11:45:31.806Z,99.99
2017-03-13T11:46:44.944Z,98.49
2017-03-13T11:47:58.067Z,98.49
2017-03-13T11:49:11.815Z,99.69
2017-03-13T11:50:24.945Z,99.65
2017-03-13T11:51:38.641Z,98.29
2017-03-13T11:52:52.437Z,99.07
2017-03-13T11:54:06.199Z,99.5
2017-03-13T11:55:19.904Z,95.54
2017-03-13T11:56:33.609Z,94.58
2017-03-13T11:57:47.296Z,93.23
2017-03-13T11:59:00.975Z,93.27
2017-03-13T12:00:14.675Z,93.18
2017-03-13T12:01:27.793Z,93.18
2017-03-13T12:02:41.554Z,91.73
2017-03-13T12:03:55.270Z,93.18
2017-03-13T12:05:08.964Z,93.76
2017-03-13T12:06:22.677Z,93.85
2017-03-13T12:07:35.849Z,92.11
2017-03-13T12:08:49.549Z,91
2017-03-13T12:10:03.293Z,91
2017-03-13T12:11:15.796Z,89.17
2017-03-13T12:12:28.939Z,90.33
2017-03-13T12:13:42.663Z,89.31
2017-03-13T12:14:56.407Z,88.15
2017-03-13T12:16:09.535Z,88.19
2017-03-13T12:17:22.685Z,87.41
2017-03-13T12:18:35.803Z,87.41
2017-03-13T12:19:49.522Z,85.19
2017-03-13T12:21:02.759Z,83.11
2017-03-13T12:22:15.874Z,82.28
2017-03-13T12:23:29.601Z,80.47
2017-03-13T12:24:42.738Z,77.42
2017-03-13T12:25:55.276Z,77.84
2017-03-13T12:27:09.027Z,79.1
2017-03-13T12:28:22.762Z,78.03
2017-03-13T12:29:36.473Z,79.58
2017-03-13T12:30:50.195Z,78.85
2017-03-13T12:32:03.908Z,76.27
2017-03-13T12:33:17.003Z,71
2017-03-13T12:34:29.507Z,69.13
2017-03-13T12:35:43.237Z,68.41
2017-03-13T12:36:57.002Z,66.11
2017-03-13T12:38:10.749Z,64.1
2017-03-13T12:39:23.269Z,64.49
2017-03-13T12:40:35.802Z,66.08
2017-03-13T12:41:48.298Z,69.9
2017-03-13T12:43:01.411Z,68.99
2017-03-13T12:44:13.943Z,68.9
2017-03-13T12:45:27.055Z,70.16
2017-03-13T12:46:40.767Z,69.09
2017-03-13T12:47:53.897Z,69.96
2017-03-13T12:49:07.610Z,70.45
2017-03-13T12:50:21.326Z,71.2
2017-03-13T12:51:34.494Z,73.55
2017-03-13T12:55:14.894Z,72.87
2017-03-13T12:56:28.049Z,72.13
2017-03-13T12:57:41.791Z,72.07
2017-03-13T12:58:55.503Z,70.32
2017-03-13T13:00:09.247Z,70.32
2017-03-13T13:01:22.916Z,70.51
2017-03-13T13:02:35.999Z,70.87
2017-03-13T13:03:49.670Z,71.55
2017-03-13T13:05:02.724Z,69.35
2017-03-13T13:06:16.393Z,69.74
2017-03-13T13:07:29.127Z,68.12
2017-03-13T13:08:43.235Z,67.44
2017-03-13T13:09:55.721Z,68.51
2017-03-13T13:11:09.425Z,66.79
2017-03-13T13:12:23.091Z,67.02
2017-03-13T13:13:36.765Z,64.49
2017-03-13T13:14:50.467Z,63.84
2017-03-13T13:16:04.185Z,63.68
2017-03-13T13:17:17.914Z,63.97
2017-03-13T13:18:31.002Z,67.31
2017-03-13T13:19:44.685Z,66.31
2017-03-13T13:20:58.354Z,63.87
2017-03-13T13:22:12.023Z,65.53
2017-03-13T13:23:25.102Z,65.92
2017-03-13T13:24:38.773Z,65.85
2017-03-13T13:25:52.454Z,65.82
2017-03-13T13:27:05.527Z,65.46
2017-03-13T13:28:19.239Z,65.14
2017-03-13T13:29:32.921Z,66.05
2017-03-13T13:30:46.002Z,66.79
2017-03-13T13:31:59.751Z,67.93
2017-03-13T13:33:12.825Z,66.5
2017-03-13T13:34:26.558Z,67.02
2017-03-13T13:35:39.661Z,64.78
2017-03-13T13:36:53.387Z,66.02
2017-03-13T13:38:06.475Z,67.38
2017-03-13T13:39:20.147Z,65.33
2017-03-13T13:40:33.921Z,65.53
2017-03-13T13:41:47.626Z,67.57
2017-03-13T13:43:01.340Z,65.2
2017-03-13T13:44:14.444Z,65.14
2017-03-13T13:45:28.130Z,65.27
2017-03-13T13:46:41.851Z,65.37
2017-03-13T13:47:55.515Z,67.28
2017-03-13T13:49:09.201Z,67.24
2017-03-13T13:50:21.697Z,67.34
2017-03-13T13:51:35.466Z,67.86
2017-03-13T13:52:49.351Z,67.08
2017-03-13T13:54:03.055Z,67.28
2017-03-13T13:55:16.139Z,67.83
2017-03-13T13:56:29.843Z,69.25
2017-03-13T13:57:42.945Z,72.23
2017-03-13T13:58:56.654Z,71.61
2017-03-13T14:00:09.730Z,72
2017-03-13T14:01:23.405Z,72.29
2017-03-13T14:02:37.093Z,72.03
2017-03-13T14:03:50.784Z,72.97
2017-03-13T14:05:03.839Z,71.84
2017-03-13T14:06:15.771Z,72.03
2017-03-13T14:07:28.865Z,70.29
2017-03-13T14:08:41.325Z,70.03
2017-03-13T14:09:54.396Z,70.39
2017-03-13T14:11:08.070Z,70.57
2017-03-13T14:12:21.752Z,71.55
2017-03-13T14:13:34.914Z,71.06
2017-03-13T14:14:48.604Z,71.84
2017-03-13T14:16:02.306Z,70.97
2017-03-13T14:17:15.377Z,69.84
2017-03-13T14:18:29.057Z,64.95
2017-03-13T14:19:42.768Z,65.66
2017-03-13T14:20:56.449Z,65.66
2017-03-13T14:22:09.539Z,66.6
2017-03-13T14:23:22.632Z,66.69
2017-03-13T14:24:36.349Z,68.8
2017-03-13T14:25:50.046Z,68.6
2017-03-13T14:27:03.804Z,68.8
2017-03-13T14:28:16.899Z,68.87
2017-03-13T14:29:30.588Z,68.87
2017-03-13T14:30:44.257Z,68.8
2017-03-13T14:31:56.722Z,68.22
2017-03-13T14:33:10.412Z,68.8
2017-03-13T14:34:23.522Z,69.74
2017-03-13T14:35:37.212Z,71.26
2017-03-13T14:36:50.290Z,70.57
2017-03-13T14:38:03.971Z,70.48
2017-03-13T14:39:17.042Z,72.09
2017-03-13T14:40:29.514Z,72.58
2017-03-13T14:41:43.191Z,72.09
2017-03-13T14:42:55.646Z,72.83
2017-03-13T14:44:09.315Z,74.1
2017-03-13T14:45:22.974Z,74.74
2017-03-13T14:46:36.653Z,74.45
2017-03-13T14:47:49.728Z,73.19
2017-03-13T14:49:02.807Z,74.1
2017-03-13T14:50:15.931Z,75.81
2017-03-13T14:51:28.999Z,77.16
2017-03-13T14:52:42.690Z,77.51
2017-03-13T14:53:55.752Z,77.37
2017-03-13T14:55:08.826Z,77.86
2017-03-13T14:56:21.916Z,77.86
2017-03-13T14:57:35.612Z,77.96
2017-03-13T14:58:48.687Z,78.83
2017-03-13T15:00:02.360Z,79.22
2017-03-13T15:01:16.024Z,79.8
2017-03-13T15:02:29.102Z,79.5
2017-03-13T15:03:42.174Z,79.5
2017-03-13T15:04:55.851Z,79.02
2017-03-13T15:06:09.519Z,79.02
2017-03-13T15:07:23.242Z,79.22
2017-03-13T15:08:36.305Z,78.64
2017-03-13T15:09:49.956Z,79.32
2017-03-13T15:11:03.063Z,79.37
2017-03-13T15:12:16.772Z,79.95
2017-03-13T15:13:29.864Z,79.76
2017-03-13T15:14:43.567Z,79.12
2017-03-13T15:15:57.261Z,79.27
2017-03-13T15:17:10.926Z,80.34
2017-03-13T15:18:24.010Z,79.95
2017-03-13T15:19:37.673Z,80.24
2017-03-13T15:20:51.371Z,79.85
2017-03-13T15:22:05.106Z,80.15
2017-03-13T15:23:18.796Z,80.15
2017-03-13T15:24:32.483Z,79.76
2017-03-13T15:25:46.142Z,80.92
2017-03-13T15:26:59.815Z,80.34
2017-03-13T15:28:13.483Z,81.12
2017-03-13T15:29:27.188Z,80.15
2017-03-13T15:30:40.853Z,80.92
2017-03-13T15:31:54.506Z,80.24
2017-03-13T15:33:07.850Z,80.2
2017-03-13T15:34:21.556Z,80.98
2017-03-13T15:35:35.273Z,81.75
2017-03-13T15:36:48.948Z,81.65
2017-03-13T15:38:02.614Z,81.65
2017-03-13T15:39:16.312Z,80.59
2017-03-13T15:40:30.060Z,80.44
2017-03-13T15:41:43.121Z,80.15
2017-03-13T15:42:56.790Z,80.38
2017-03-13T15:44:09.881Z,80.19
2017-03-13T15:45:22.978Z,80.87
2017-03-13T15:46:35.469Z,81.35
2017-03-13T15:47:49.167Z,81.98
2017-03-13T15:49:02.869Z,82.95
2017-03-13T15:50:16.610Z,82.95
2017-03-13T15:51:29.092Z,81.5
2017-03-13T15:52:42.152Z,82.47
2017-03-13T15:53:55.819Z,82.76